Aeroboteco Virtual Airlines! Uma nuvem a frente.



 INFORMAÇÕES METEOROLÓGICAS
METAR FOR PAGS
ADDS - METARS form results

(2145 UTC 21 March 2019)
Data provider http://aviationweather.gov/metar/data/
 
METAR text: PAGS 212111Z AUTO 00000KT 10SM -RA BKN005 OVC065 07/06 A2986 RMK AO2 P0000
Conditions at: PAGS (GUSTAVUS , AK, US) observed 2111 UTC 21 March 2019
Temperature: 7.0°C (45°F)
Dewpoint: 6.0°C (43°F) [RH = 93%]
Pressure (altimeter): 29.86 inches Hg (1011.3 mb)
Winds: calm
Visibility: 10 or more miles (16+ km)
Ceiling: 500 feet AGL
Clouds: broken clouds at 500 feet AGL
overcast cloud deck at 6500 feet AGL
Weather: -RA  (light rain)

METAR text: PAGS 212056Z AUTO 00000KT 10SM -RA FEW003 OVC065 07/06 A2986 RMK AO2 RAB06 SLP111 P0000 60000 T00670061 58001
Conditions at: PAGS (GUSTAVUS , AK, US) observed 2056 UTC 21 March 2019
Temperature: 6.7°C (44°F)
Dewpoint: 6.1°C (43°F) [RH = 96%]
Pressure (altimeter): 29.86 inches Hg (1011.3 mb)
[Sea-level pressure: 1011.1 mb]
Winds: calm
Visibility: 10 or more miles (16+ km)
Ceiling: 6500 feet AGL
Clouds: few clouds at 300 feet AGL
overcast cloud deck at 6500 feet AGL
Weather: -RA  (light rain)

METAR text: PAGS 212047Z AUTO 00000KT 10SM -RA SCT003 OVC065 07/06 A2986 RMK AO2 RAB06 P0000
Conditions at: PAGS (GUSTAVUS , AK, US) observed 2047 UTC 21 March 2019
Temperature: 7.0°C (45°F)
Dewpoint: 6.0°C (43°F) [RH = 93%]
Pressure (altimeter): 29.86 inches Hg (1011.3 mb)
Winds: calm
Visibility: 10 or more miles (16+ km)
Ceiling: 6500 feet AGL
Clouds: scattered clouds at 300 feet AGL
overcast cloud deck at 6500 feet AGL
Weather: -RA  (light rain)

Forecast for: PAGS (GUSTAVUS , AK, US)
Text: PAGS 211734Z 2118/2218 32003KT P6SM VCSH SCT007 OVC070
Forecast period: 1800 UTC 21 March 2019 to 0500 UTC 22 March 2019
Forecast type: FROM: standard forecast or significant change
Winds: from the NW (320 degrees) at 3 MPH (3 knots; 1.5 m/s)
Visibility: 6 or more miles 10+ km)
Ceiling: 7000 feet AGL
Clouds: scattered clouds at 700 feet AGL
overcast cloud deck at 7000 feet AGL
Weather: VCSH  (showers in vicinity)
Text: TEMPO 2118/2119 3/4SM BR BKN003
Forecast period: 1800 to 1900 UTC 21 March 2019
Forecast type: TEMPORARY: The following changes expected for less than half the time period
Visibility: 0.75 miles (1.21 km)
Ceiling: 300 feet AGL
Clouds: broken clouds at 300 feet AGL
Weather: BR  (mist)
Text: FM220500 32005KT P6SM -RA OVC040 WS020/13020KT AMD LTD TO CLD VIS AND WIND
Forecast period: 0500 to 1800 UTC 22 March 2019
Forecast type: FROM: standard forecast or significant change
Winds: from the NW (320 degrees) at 6 MPH (5 knots; 2.6 m/s)
Visibility: 6 or more miles 10+ km)
Ceiling: 4000 feet AGL
Clouds: overcast cloud deck at 4000 feet AGL
Wind Shear: at 2000 feet ( 610 m) AGL, from the SE (130 degrees) at 23 MPH (20 knots; 10.4 m/s)
Weather: -RA  (light rain)

 MAPA DO AEROPORTO

 INFORMAÇÕES DA PISTA
Pista 02 Tamanho da pista 3010 ft Largura da pista 60 ft
Elevação da pista 28 ft Ranhura da pista 0 ft Proa da pista 41
Pista 20 Tamanho da pista 3010 ft Largura da pista 60 ft
Elevação da pista 30 ft Ranhura da pista 0 ft Proa da pista 221
Pista 11 Tamanho da pista 6720 ft Largura da pista 150 ft
Elevação da pista 34 ft Ranhura da pista 0 ft Proa da pista 135
Pista 29 Tamanho da pista 6720 ft Largura da pista 150 ft
Elevação da pista 26 ft Ranhura da pista 0 ft Proa da pista 315

 FREQUÊNCIAS DO AEROPORTO
Tipo AWOS Nome AWOS 3 Frequência 125.9 MHZ
Tipo CNTR Nome ANCHORAGE Frequência 133.2 MHZ
Tipo CTAF Nome CTAF Frequência 122.5 MHZ
Tipo RCO Nome JUNEAU RDO Frequência 122.65 MHZ

 AUXÍLIOS DE NAVEGAÇÃO PRÓXIMOS AO AEROPORTO
Tipo NDB Nome Gustavus Frequência 219 KHZ